Time;durP1;ratioP1;P1;durP2;ratioP2;P2;SDS_P1;SDS_P2;PMS_P1;PMS_P2;Temp;Humidity;BMP_temperature;BMP_pressure;BME280_temperature;BME280_humidity;BME280_pressure;Samples;Min_cycle;Max_cycle;Signal;HPM_P1;HPM_P2
2023/04/21 00:01:41;;;;;;;2.07;1.87;;;17.80;59.90;;;;;;5093526;28;20189;-46
2023/04/21 00:04:12;;;;;;;2.10;1.90;;;17.80;59.90;;;;;;5084641;28;20201;-46
2023/04/21 00:06:45;;;;;;;4.47;2.00;;;17.80;59.80;;;;;;5087856;28;20213;-46
2023/04/21 00:09:14;;;;;;;1.97;1.87;;;17.80;59.90;;;;;;5086485;28;20259;-46
2023/04/21 00:11:47;;;;;;;1.80;1.70;;;17.80;59.80;;;;;;5094626;28;20248;-46
2023/04/21 00:14:16;;;;;;;1.53;1.40;;;17.80;59.70;;;;;;5085792;28;20223;-46
2023/04/21 00:16:51;;;;;;;1.90;1.80;;;17.80;59.70;;;;;;5100420;28;20517;-46
2023/04/21 00:19:23;;;;;;;1.67;1.57;;;17.80;59.60;;;;;;5105428;28;20179;-46
2023/04/21 00:21:57;;;;;;;2.07;1.97;;;17.80;59.70;;;;;;5095280;28;20216;-46
2023/04/21 00:24:29;;;;;;;2.10;1.90;;;17.80;59.60;;;;;;5095168;28;20328;-47
2023/04/21 00:27:02;;;;;;;1.60;1.50;;;17.80;59.60;;;;;;5091922;28;20208;-46
2023/04/21 00:29:32;;;;;;;1.70;1.60;;;17.80;59.60;;;;;;5086952;28;20596;-46
2023/04/21 00:32:02;;;;;;;2.17;1.97;;;17.80;59.70;;;;;;5104656;28;20239;-46
2023/04/21 00:34:42;;;;;;;2.20;2.00;;;17.70;59.50;;;;;;5108220;28;20292;-46
2023/04/21 00:37:13;;;;;;;2.00;1.90;;;17.80;59.50;;;;;;5076426;28;20196;-46
2023/04/21 00:39:44;;;;;;;2.00;1.70;;;17.80;59.50;;;;;;5089677;28;20196;-47
2023/04/21 00:42:17;;;;;;;1.90;1.80;;;17.70;59.40;;;;;;5094014;28;20209;-46
2023/04/21 00:44:47;;;;;;;2.07;1.83;;;17.70;59.50;;;;;;5105299;28;20637;-47
2023/04/21 00:47:20;;;;;;;2.37;1.80;;;17.70;59.40;;;;;;5098295;28;20216;-46
2023/04/21 00:49:49;;;;;;;1.90;1.80;;;17.70;59.40;;;;;;5091496;28;20211;-46
2023/04/21 00:52:23;;;;;;;2.20;2.00;;;17.70;59.40;;;;;;5073626;28;20193;-46
2023/04/21 00:54:53;;;;;;;1.70;1.60;;;17.70;59.40;;;;;;5081150;28;20560;-46
2023/04/21 00:57:24;;;;;;;2.20;2.00;;;17.70;59.30;;;;;;5098425;28;20189;-46
2023/04/21 00:59:54;;;;;;;1.97;1.83;;;17.70;59.30;;;;;;5066343;28;20244;-47
2023/04/21 01:02:27;;;;;;;1.87;1.77;;;17.70;59.30;;;;;;5093144;28;20201;-46
2023/04/21 01:05:00;;;;;;;2.07;1.87;;;17.70;59.30;;;;;;5092624;27;20218;-46
2023/04/21 01:07:31;;;;;;;2.47;2.00;;;17.70;59.30;;;;;;5075129;28;20230;-46
2023/04/21 01:10:04;;;;;;;1.90;1.70;;;17.70;59.50;;;;;;5093167;28;20249;-46
2023/04/21 01:12:32;;;;;;;2.50;2.30;;;17.70;59.20;;;;;;5082246;28;20216;-46
2023/04/21 01:15:01;;;;;;;2.27;2.07;;;17.70;59.30;;;;;;5089784;28;20239;-46
2023/04/21 01:17:37;;;;;;;1.87;1.77;;;17.70;59.20;;;;;;5072776;28;20627;-46
2023/04/21 01:20:14;;;;;;;1.90;1.80;;;17.70;59.30;;;;;;5093695;28;20199;-46
2023/04/21 01:22:45;;;;;;;2.27;2.07;;;17.60;59.10;;;;;;5098841;28;20203;-46
2023/04/21 01:25:16;;;;;;;2.30;2.10;;;17.60;59.20;;;;;;5094496;28;20297;-46
2023/04/21 01:27:46;;;;;;;2.20;2.00;;;17.60;59.20;;;;;;5094221;28;20197;-46
2023/04/21 01:30:23;;;;;;;2.77;1.97;;;17.60;59.10;;;;;;5093279;28;20240;-46
2023/04/21 01:32:57;;;;;;;2.00;1.80;;;17.60;59.20;;;;;;5100398;28;20688;-46
2023/04/21 01:35:27;;;;;;;2.73;2.23;;;17.60;59.10;;;;;;5091879;28;20226;-46
2023/04/21 01:37:57;;;;;;;2.10;2.00;;;17.60;59.10;;;;;;5105885;28;20205;-46
2023/04/21 01:40:27;;;;;;;2.67;2.47;;;17.60;59.10;;;;;;5103471;28;20201;-46
2023/04/21 01:42:58;;;;;;;2.43;2.23;;;17.60;59.00;;;;;;5099910;28;20200;-46
2023/04/21 01:45:30;;;;;;;1.83;1.73;;;17.60;59.00;;;;;;5079070;28;20603;-46
2023/04/21 01:48:00;;;;;;;2.77;2.57;;;17.60;59.10;;;;;;5071910;28;20213;-47
2023/04/21 01:50:31;;;;;;;3.13;2.40;;;17.60;59.00;;;;;;5086027;28;20197;-46
2023/04/21 01:53:00;;;;;;;2.83;2.63;;;17.60;58.90;;;;;;5074592;28;20212;-46
2023/04/21 01:55:30;;;;;;;2.40;2.20;;;17.60;58.90;;;;;;5080981;28;20731;-47
2023/04/21 01:58:02;;;;;;;2.37;2.00;;;17.60;58.90;;;;;;5082010;28;20201;-46
2023/04/21 02:00:34;;;;;;;2.27;2.07;;;17.60;59.50;;;;;;5097490;28;20270;-46
2023/04/21 02:03:03;;;;;;;3.60;2.30;;;17.60;58.90;;;;;;5106603;28;20226;-46
2023/04/21 02:05:32;;;;;;;3.00;2.20;;;17.60;58.90;;;;;;5100445;28;20208;-46
2023/04/21 02:08:00;;;;;;;2.53;2.33;;;17.60;58.80;;;;;;5087776;28;20216;-46
2023/04/21 02:10:34;;;;;;;2.30;2.10;;;17.60;58.80;;;;;;5091126;28;20200;-47
2023/04/21 02:13:06;;;;;;;2.70;2.50;;;17.50;58.80;;;;;;5086906;28;20627;-46
2023/04/21 02:15:36;;;;;;;2.30;2.10;;;17.60;58.80;;;;;;5092209;28;20220;-46
2023/04/21 02:18:07;;;;;;;2.40;2.20;;;17.60;59.50;;;;;;5079114;28;20199;-47
2023/04/21 02:20:36;;;;;;;2.93;2.03;;;17.60;58.80;;;;;;5104814;28;20189;-47
2023/04/21 02:23:05;;;;;;;2.47;2.27;;;17.50;58.70;;;;;;5055692;28;20212;-46
2023/04/21 02:25:37;;;;;;;2.40;2.20;;;17.50;58.80;;;;;;5091443;28;20236;-46
2023/04/21 02:28:07;;;;;;;2.27;2.07;;;17.50;59.40;;;;;;5099770;28;20299;-46
2023/04/21 02:30:39;;;;;;;2.57;2.37;;;17.60;58.80;;;;;;5097163;28;20201;-46
2023/04/21 02:33:10;;;;;;;2.40;2.20;;;17.50;58.70;;;;;;5088523;28;20225;-46
2023/04/21 02:35:42;;;;;;;2.83;2.60;;;17.60;58.80;;;;;;5088647;28;20313;-46
2023/04/21 02:38:13;;;;;;;2.50;2.30;;;17.50;58.70;;;;;;5091914;28;20201;-46
2023/04/21 02:40:44;;;;;;;3.00;2.70;;;17.50;58.70;;;;;;5092487;28;20218;-46
2023/04/21 02:43:18;;;;;;;2.60;2.40;;;17.50;58.70;;;;;;5090560;28;20258;-47
2023/04/21 02:45:50;;;;;;;2.60;2.40;;;17.50;58.70;;;;;;5092895;28;20561;-46
2023/04/21 02:48:26;;;;;;;2.43;2.23;;;17.50;58.70;;;;;;5090707;28;20591;-46
2023/04/21 02:50:54;;;;;;;2.50;2.30;;;17.50;58.70;;;;;;5088919;28;20200;-46
2023/04/21 02:53:26;;;;;;;2.70;2.50;;;17.50;58.70;;;;;;5077866;28;20524;-46
2023/04/21 02:55:56;;;;;;;2.13;1.93;;;17.50;58.70;;;;;;5074337;28;20321;-46
2023/04/21 02:58:27;;;;;;;2.67;2.47;;;17.50;58.70;;;;;;5091569;28;20193;-46
2023/04/21 03:00:57;;;;;;;2.40;2.20;;;17.50;58.70;;;;;;5085944;28;20261;-46
2023/04/21 03:03:27;;;;;;;2.60;2.40;;;17.50;58.70;;;;;;5092919;28;20600;-46
2023/04/21 03:05:58;;;;;;;2.70;2.50;;;17.50;58.70;;;;;;5092375;28;20201;-47
2023/04/21 03:08:28;;;;;;;2.63;2.40;;;17.50;58.70;;;;;;5076244;28;20262;-46
2023/04/21 03:10:57;;;;;;;2.90;2.60;;;17.50;58.70;;;;;;5086695;28;20243;-46
2023/04/21 03:13:27;;;;;;;2.67;2.43;;;17.50;58.70;;;;;;5074179;28;20208;-46
2023/04/21 03:15:59;;;;;;;3.90;3.50;;;17.50;58.70;;;;;;5093074;28;20208;-46
2023/04/21 03:18:33;;;;;;;2.63;2.43;;;17.50;58.70;;;;;;5090771;28;20533;-46
2023/04/21 03:21:01;;;;;;;3.57;2.77;;;17.50;58.70;;;;;;5070859;28;20286;-46
2023/04/21 03:23:33;;;;;;;3.60;2.40;;;17.50;58.70;;;;;;5089576;28;20278;-46
2023/04/21 03:26:07;;;;;;;3.87;3.00;;;17.50;58.70;;;;;;5091803;28;20250;-46
2023/04/21 03:28:41;;;;;;;3.73;2.73;;;17.40;58.60;;;;;;5097872;28;20192;-46
2023/04/21 03:31:14;;;;;;;2.73;2.53;;;17.40;58.70;;;;;;5100621;28;20186;-46
2023/04/21 03:33:44;;;;;;;3.30;3.00;;;17.40;58.70;;;;;;5090451;28;20225;-46
2023/04/21 03:36:18;;;;;;;3.53;2.90;;;17.50;58.70;;;;;;5097900;27;20550;-46
2023/04/21 03:38:47;;;;;;;2.90;2.70;;;17.40;58.70;;;;;;5106297;28;20538;-46
2023/04/21 03:41:15;;;;;;;2.90;2.57;;;17.40;58.70;;;;;;5094620;28;20185;-47
2023/04/21 03:43:45;;;;;;;3.47;3.17;;;17.40;58.60;;;;;;5095257;28;20185;-47
2023/04/21 03:46:18;;;;;;;3.03;2.77;;;17.40;58.70;;;;;;5094293;28;20189;-46
2023/04/21 03:48:47;;;;;;;4.60;3.30;;;17.40;58.60;;;;;;5073041;28;20691;-46
2023/04/21 03:51:19;;;;;;;3.23;2.87;;;17.40;58.70;;;;;;5100371;28;20197;-48
2023/04/21 03:53:48;;;;;;;3.57;3.10;;;17.40;58.70;;;;;;5093152;28;20193;-47
2023/04/21 03:56:18;;;;;;;4.03;3.03;;;17.40;58.60;;;;;;5096252;28;20204;-46
2023/04/21 03:58:48;;;;;;;3.67;3.23;;;17.40;58.70;;;;;;5083903;28;20274;-46
2023/04/21 04:01:19;;;;;;;5.33;3.33;;;17.40;58.70;;;;;;5082067;28;20824;-46
2023/04/21 04:04:00;;;;;;;3.20;2.90;;;17.40;58.70;;;;;;5094411;28;20709;-47
2023/04/21 04:06:45;;;;;;;3.47;2.93;;;17.40;58.70;;;;;;5090641;28;20622;-47
2023/04/21 04:09:17;;;;;;;4.47;2.70;;;17.40;58.70;;;;;;5095931;28;20400;-46
2023/04/21 04:11:48;;;;;;;3.37;2.77;;;17.40;58.70;;;;;;5082868;28;20207;-47
2023/04/21 04:14:16;;;;;;;3.83;3.40;;;17.40;58.60;;;;;;5072062;28;20231;-46
2023/04/21 04:16:46;;;;;;;3.40;3.10;;;17.40;58.60;;;;;;5092520;28;20271;-46
2023/04/21 04:19:16;;;;;;;3.20;2.90;;;17.40;58.60;;;;;;5102053;28;20459;-46
2023/04/21 04:21:46;;;;;;;3.57;3.23;;;17.40;58.50;;;;;;5098792;28;20195;-46
2023/04/21 04:24:20;;;;;;;3.70;3.40;;;17.30;58.50;;;;;;5106454;28;20205;-46
2023/04/21 04:26:50;;;;;;;3.43;3.13;;;17.40;58.50;;;;;;5105488;28;20269;-46
2023/04/21 04:29:22;;;;;;;3.47;3.17;;;17.40;58.70;;;;;;5090890;28;20626;-46
2023/04/21 04:31:52;;;;;;;3.93;3.50;;;17.40;58.90;;;;;;5093742;28;20207;-46
2023/04/21 04:34:22;;;;;;;6.70;3.27;;;17.40;59.20;;;;;;5089120;28;20236;-45
2023/04/21 04:36:52;;;;;;;3.90;3.57;;;17.50;59.40;;;;;;5094116;28;20625;-45
2023/04/21 04:39:21;;;;;;;3.80;3.30;;;17.50;59.20;;;;;;5070803;28;20243;-46
2023/04/21 04:41:53;;;;;;;5.23;3.50;;;17.60;59.10;;;;;;5088567;28;20645;-45
2023/04/21 04:44:26;;;;;;;3.57;3.27;;;17.60;59.00;;;;;;5082457;28;20207;-45
2023/04/21 04:46:59;;;;;;;4.03;3.63;;;17.70;59.00;;;;;;5084186;28;20215;-46
2023/04/21 04:49:29;;;;;;;3.93;3.53;;;17.70;58.80;;;;;;5100403;28;20201;-46
2023/04/21 04:51:58;;;;;;;5.57;3.43;;;17.80;58.90;;;;;;5103425;28;20192;-46
2023/04/21 04:54:28;;;;;;;4.17;3.77;;;17.80;58.80;;;;;;5100639;28;20235;-46
2023/04/21 04:56:58;;;;;;;5.87;3.73;;;17.80;58.80;;;;;;5092624;28;20200;-46
2023/04/21 04:59:30;;;;;;;4.37;3.93;;;17.80;58.70;;;;;;5064941;28;20217;-46
2023/04/21 05:02:03;;;;;;;4.40;3.90;;;17.90;58.60;;;;;;5097733;28;20594;-46
2023/04/21 05:04:35;;;;;;;4.93;3.90;;;17.90;58.50;;;;;;5097956;28;20201;-46
2023/04/21 05:07:07;;;;;;;4.57;4.07;;;18.00;58.20;;;;;;5086277;28;20197;-46
2023/04/21 05:09:37;;;;;;;7.50;4.33;;;18.00;57.80;;;;;;5083982;28;20317;-46
2023/04/21 05:12:09;;;;;;;6.07;4.60;;;18.10;57.70;;;;;;5078298;28;20212;-46
2023/04/21 05:14:39;;;;;;;6.97;5.27;;;18.00;57.50;;;;;;5091851;28;20223;-46
2023/04/21 05:17:07;;;;;;;6.10;5.30;;;18.00;57.40;;;;;;5104347;28;20197;-46
2023/04/21 05:19:37;;;;;;;6.23;5.27;;;18.00;57.50;;;;;;5100345;28;20192;-46
2023/04/21 05:22:09;;;;;;;7.10;4.70;;;18.00;57.50;;;;;;5108470;28;20602;-46
2023/04/21 05:24:41;;;;;;;6.67;5.13;;;18.00;57.40;;;;;;5091666;28;20208;-46
2023/04/21 05:27:14;;;;;;;8.43;6.20;;;18.00;57.50;;;;;;5088895;28;20193;-46
2023/04/21 05:29:45;;;;;;;7.87;5.17;;;17.90;57.20;;;;;;5088531;28;20545;-46
2023/04/21 05:32:16;;;;;;;6.43;5.47;;;17.90;57.30;;;;;;5100665;28;20779;-46
2023/04/21 05:34:46;;;;;;;7.10;5.90;;;17.90;57.90;;;;;;5097253;28;20212;-46
2023/04/21 05:37:21;;;;;;;6.43;5.67;;;17.90;57.20;;;;;;5107662;28;20185;-45
2023/04/21 05:40:04;;;;;;;8.80;6.00;;;17.90;57.30;;;;;;5089541;28;20203;-45
2023/04/21 05:42:34;;;;;;;7.80;6.07;;;17.80;57.10;;;;;;5084171;28;20529;-45
2023/04/21 05:45:06;;;;;;;7.60;6.43;;;17.80;57.10;;;;;;5088152;28;20649;-45
2023/04/21 05:47:38;;;;;;;8.33;6.43;;;17.80;57.80;;;;;;5080493;28;20212;-46
2023/04/21 05:50:10;;;;;;;11.40;7.13;;;17.80;57.80;;;;;;5097930;28;20239;-45
2023/04/21 05:52:43;;;;;;;8.20;6.33;;;17.80;57.80;;;;;;5101356;28;20204;-45
2023/04/21 05:55:15;;;;;;;12.30;6.90;;;17.70;57.70;;;;;;5106173;28;20311;-46
2023/04/21 05:57:44;;;;;;;9.13;7.27;;;17.70;57.70;;;;;;5106457;28;20177;-46
2023/04/21 06:00:15;;;;;;;9.67;7.00;;;17.70;57.60;;;;;;5102574;27;20200;-45
2023/04/21 06:02:47;;;;;;;7.87;7.00;;;17.70;57.60;;;;;;5106194;28;20193;-46
2023/04/21 06:05:19;;;;;;;8.87;6.60;;;17.70;57.50;;;;;;5104359;28;20219;-45
2023/04/21 06:07:51;;;;;;;10.67;7.73;;;17.70;57.40;;;;;;5085899;28;20283;-46
2023/04/21 06:10:21;;;;;;;9.67;7.80;;;17.70;57.40;;;;;;5103158;28;20189;-46
2023/04/21 06:12:50;;;;;;;9.33;7.00;;;17.70;57.40;;;;;;5098807;28;20244;-46
2023/04/21 06:15:21;;;;;;;10.87;7.20;;;17.60;57.50;;;;;;5108264;28;20224;-45
2023/04/21 06:17:55;;;;;;;8.57;7.07;;;17.60;57.40;;;;;;5106035;28;20248;-45
2023/04/21 06:20:27;;;;;;;9.37;6.87;;;17.60;57.30;;;;;;5111917;28;20250;-46
2023/04/21 06:22:57;;;;;;;9.97;7.90;;;17.60;57.30;;;;;;5103631;28;20185;-45
2023/04/21 06:25:26;;;;;;;11.63;7.80;;;17.70;57.30;;;;;;5098128;28;20200;-46
2023/04/21 06:27:57;;;;;;;11.30;7.57;;;17.60;57.30;;;;;;5097366;28;20266;-46
2023/04/21 06:30:29;;;;;;;12.77;7.93;;;17.60;57.20;;;;;;5101188;28;20196;-45
2023/04/21 06:33:03;;;;;;;9.20;7.10;;;17.60;57.30;;;;;;5088072;28;20253;-45
2023/04/21 06:35:36;;;;;;;12.27;8.20;;;17.60;57.30;;;;;;5083230;28;20306;-46
2023/04/21 06:38:08;;;;;;;10.67;7.60;;;17.60;57.20;;;;;;5064255;28;20198;-46
2023/04/21 06:40:41;;;;;;;10.13;8.17;;;17.60;57.20;;;;;;5057059;28;20205;-46
2023/04/21 06:43:13;;;;;;;11.13;8.60;;;17.60;57.30;;;;;;5073490;28;20393;-45
2023/04/21 06:45:41;;;;;;;10.20;7.97;;;17.60;57.20;;;;;;5053048;28;20752;-45
2023/04/21 06:48:11;;;;;;;11.37;7.70;;;17.60;57.20;;;;;;5077405;28;20220;-46
2023/04/21 06:50:45;;;;;;;10.90;8.10;;;17.60;57.10;;;;;;5071466;28;20230;-45
2023/04/21 06:53:17;;;;;;;11.87;8.30;;;17.50;57.20;;;;;;5080026;28;20607;-46
2023/04/21 06:55:47;;;;;;;10.67;7.90;;;17.50;57.20;;;;;;5076235;28;20221;-46
2023/04/21 06:58:18;;;;;;;8.57;7.60;;;17.50;57.20;;;;;;5070215;28;20193;-46
2023/04/21 07:00:49;;;;;;;14.87;8.80;;;17.50;57.20;;;;;;5068562;28;20655;-46
2023/04/21 07:03:18;;;;;;;11.63;8.20;;;17.50;57.20;;;;;;5075154;28;20746;-46
2023/04/21 07:05:47;;;;;;;9.70;8.20;;;17.50;57.20;;;;;;5048184;28;20293;-46
2023/04/21 07:08:17;;;;;;;10.83;8.40;;;17.50;57.10;;;;;;5083975;28;20504;-46
2023/04/21 07:10:47;;;;;;;11.13;8.23;;;17.50;57.10;;;;;;5075729;28;20197;-46
2023/04/21 07:13:16;;;;;;;9.17;8.23;;;17.60;57.10;;;;;;5070309;28;20269;-45
2023/04/21 07:15:49;;;;;;;9.80;8.30;;;17.50;57.00;;;;;;5085595;28;20555;-45
2023/04/21 07:18:19;;;;;;;9.50;7.63;;;17.50;57.00;;;;;;5057386;28;20194;-46
2023/04/21 07:20:49;;;;;;;10.80;7.97;;;17.50;57.00;;;;;;5053391;28;20546;-45
2023/04/21 07:23:18;;;;;;;9.47;8.23;;;17.50;57.00;;;;;;5069075;28;20206;-46
2023/04/21 07:25:48;;;;;;;9.80;8.77;;;17.50;57.00;;;;;;5085737;28;20204;-46
2023/04/21 07:28:18;;;;;;;10.23;8.03;;;17.60;57.00;;;;;;5076753;28;20666;-45
2023/04/21 07:30:47;;;;;;;9.07;8.03;;;17.50;57.00;;;;;;5082747;28;20542;-45
2023/04/21 07:33:17;;;;;;;10.83;8.00;;;17.50;57.00;;;;;;5047180;28;20257;-46
2023/04/21 07:35:44;;;;;;;9.73;7.67;;;17.50;57.00;;;;;;5052549;28;20629;-46
2023/04/21 07:38:15;;;;;;;9.83;8.50;;;17.50;57.00;;;;;;5048798;28;20206;-46
2023/04/21 07:40:46;;;;;;;8.90;7.73;;;17.50;57.00;;;;;;5061826;28;20219;-45
2023/04/21 07:43:17;;;;;;;8.37;7.20;;;17.50;57.10;;;;;;5049490;28;20190;-45
2023/04/21 07:45:51;;;;;;;10.23;8.53;;;17.50;57.00;;;;;;5053024;28;20621;-46
2023/04/21 07:48:23;;;;;;;10.73;7.50;;;17.50;57.00;;;;;;5048136;28;20226;-46
2023/04/21 07:50:52;;;;;;;10.00;8.20;;;17.50;57.00;;;;;;5032347;28;20567;-46
2023/04/21 07:53:24;;;;;;;8.93;6.80;;;17.50;57.20;;;;;;5062351;28;20539;-46
2023/04/21 07:55:55;;;;;;;9.07;7.87;;;17.50;57.20;;;;;;5069649;28;20201;-45
2023/04/21 07:58:23;;;;;;;7.70;6.93;;;17.50;57.20;;;;;;5050648;28;20194;-46
2023/04/21 08:00:53;;;;;;;9.83;7.17;;;17.50;57.20;;;;;;5051620;28;20206;-46
2023/04/21 08:03:24;;;;;;;7.90;7.10;;;17.50;57.20;;;;;;5051067;28;20194;-45
2023/04/21 08:05:53;;;;;;;8.07;7.20;;;17.50;57.10;;;;;;5049849;28;20911;-46
2023/04/21 08:08:24;;;;;;;7.60;6.80;;;17.50;57.20;;;;;;5048791;28;20270;-46
2023/04/21 08:11:00;;;;;;;8.10;6.50;;;17.50;57.10;;;;;;5032353;28;20233;-46
2023/04/21 08:13:35;;;;;;;8.03;6.83;;;17.50;57.10;;;;;;5062948;28;20206;-46
2023/04/21 08:16:11;;;;;;;7.00;6.30;;;17.50;57.20;;;;;;5038638;28;20213;-45
2023/04/21 08:18:48;;;;;;;7.70;6.80;;;17.50;57.20;;;;;;5049244;28;20197;-45
2023/04/21 08:21:20;;;;;;;7.10;6.40;;;17.60;57.20;;;;;;5048729;28;20194;-45
2023/04/21 08:23:50;;;;;;;5.93;5.37;;;17.50;57.00;;;;;;5049723;28;20210;-46
2023/04/21 08:26:26;;;;;;;7.10;6.40;;;17.50;57.10;;;;;;5050639;28;20610;-47
2023/04/21 08:28:56;;;;;;;5.83;5.27;;;17.50;57.00;;;;;;5053030;28;20219;-47
2023/04/21 08:31:28;;;;;;;6.77;6.17;;;17.50;57.10;;;;;;5026787;28;20197;-47
2023/04/21 08:33:56;;;;;;;6.63;5.87;;;17.50;57.00;;;;;;5051466;28;20237;-47
2023/04/21 08:36:33;;;;;;;7.17;6.47;;;17.50;57.10;;;;;;5066590;28;20268;-46
2023/04/21 08:39:01;;;;;;;7.20;6.43;;;17.50;56.90;;;;;;5080528;28;20197;-45
2023/04/21 08:41:30;;;;;;;6.90;6.20;;;17.50;57.00;;;;;;5088582;28;20201;-47
2023/04/21 08:44:01;;;;;;;6.77;6.07;;;17.50;57.00;;;;;;5089404;28;20203;-47
2023/04/21 08:46:40;;;;;;;5.90;5.30;;;17.50;57.10;;;;;;5077758;28;20545;-47
2023/04/21 08:49:08;;;;;;;6.37;5.77;;;17.60;57.20;;;;;;5072375;28;20217;-47
2023/04/21 08:51:37;;;;;;;6.60;5.80;;;17.60;57.20;;;;;;5052047;28;20550;-46
2023/04/21 08:54:07;;;;;;;6.13;5.53;;;17.60;57.20;;;;;;5068096;28;20193;-46
2023/04/21 08:56:36;;;;;;;6.97;6.00;;;17.60;57.20;;;;;;5062398;28;20221;-46
2023/04/21 08:59:06;;;;;;;6.10;5.50;;;17.60;57.10;;;;;;5055626;28;20193;-45
2023/04/21 09:02:10;;;;;;;6.60;6.00;;;17.60;57.30;;;;;;5083297;28;20194;-47
2023/04/21 09:04:47;;;;;;;7.67;6.10;;;17.60;57.30;;;;;;5066631;28;20266;-47
2023/04/21 09:07:36;;;;;;;6.23;5.63;;;17.60;57.30;;;;;;5082078;28;20201;-46
2023/04/21 09:10:07;;;;;;;6.83;6.13;;;17.60;57.20;;;;;;5059527;28;20193;-46
2023/04/21 09:12:40;;;;;;;6.50;5.70;;;17.60;57.10;;;;;;5058463;28;20522;-47
2023/04/21 09:15:16;;;;;;;7.10;6.37;;;17.60;57.10;;;;;;5055115;28;20284;-47
2023/04/21 09:17:53;;;;;;;6.47;5.47;;;17.70;57.10;;;;;;5062382;28;20193;-47
2023/04/21 09:20:24;;;;;;;6.90;5.87;;;17.60;57.20;;;;;;5074050;28;20197;-47
2023/04/21 09:22:54;;;;;;;6.67;5.97;;;17.60;57.10;;;;;;5071842;28;20561;-47
2023/04/21 09:25:24;;;;;;;6.87;6.17;;;17.60;57.20;;;;;;5081039;28;20553;-47
2023/04/21 09:27:54;;;;;;;5.87;5.27;;;17.70;57.30;;;;;;5085327;28;20232;-47
2023/04/21 09:30:24;;;;;;;5.80;5.20;;;17.60;57.30;;;;;;5076068;28;20190;-47
2023/04/21 09:32:59;;;;;;;7.30;6.60;;;17.70;57.20;;;;;;5068278;28;20198;-47
2023/04/21 09:35:52;;;;;;;6.37;5.77;;;17.70;57.30;;;;;;5047660;28;20226;-45
2023/04/21 09:38:22;;;;;;;6.40;5.70;;;17.70;57.30;;;;;;5056849;28;20213;-45
2023/04/21 09:40:59;;;;;;;6.73;6.03;;;17.70;57.20;;;;;;5036479;28;20225;-45
2023/04/21 09:43:29;;;;;;;6.17;5.57;;;17.70;57.30;;;;;;5039235;28;20206;-45
2023/04/21 09:46:04;;;;;;;5.97;5.47;;;17.70;57.30;;;;;;5035780;28;20198;-45
2023/04/21 09:48:38;;;;;;;7.33;6.60;;;17.70;57.30;;;;;;5031919;28;20344;-45
2023/04/21 09:51:17;;;;;;;6.50;5.90;;;17.70;57.30;;;;;;5049493;28;20662;-45
2023/04/21 09:54:16;;;;;;;5.87;5.27;;;17.70;57.30;;;;;;5040672;28;20202;-45
2023/04/21 09:57:12;;;;;;;5.90;5.30;;;17.70;57.40;;;;;;4990249;28;20622;-46
2023/04/21 09:59:44;;;;;;;5.90;5.30;;;17.80;57.40;;;;;;4972330;28;20255;-46
2023/04/21 10:02:18;;;;;;;5.27;4.77;;;17.80;57.50;;;;;;4970028;28;20208;-46
2023/04/21 10:04:54;;;;;;;5.23;4.73;;;17.80;57.50;;;;;;4987920;28;20928;-46
2023/04/21 10:07:26;;;;;;;5.63;5.03;;;17.80;57.50;;;;;;4989369;28;20208;-47
2023/04/21 10:10:02;;;;;;;5.33;4.83;;;17.80;57.40;;;;;;4990294;28;20968;-46
2023/04/21 10:13:06;;;;;;;5.50;5.00;;;17.80;57.50;;;;;;4991505;28;20243;-47
2023/04/21 10:15:40;;;;;;;5.77;5.20;;;17.80;57.60;;;;;;5019607;28;20241;-45
2023/04/21 10:18:18;;;;;;;5.17;4.57;;;17.80;57.60;;;;;;5017207;28;20191;-45
2023/04/21 10:21:05;;;;;;;5.87;5.27;;;17.90;57.60;;;;;;5034594;28;20198;-47
2023/04/21 10:23:48;;;;;;;5.70;4.80;;;17.90;57.60;;;;;;5042566;28;20632;-47
2023/04/21 10:26:35;;;;;;;5.10;4.60;;;17.90;57.70;;;;;;5049654;28;20190;-47
2023/04/21 10:29:08;;;;;;;5.37;4.87;;;17.90;57.70;;;;;;5050866;28;20198;-47
2023/04/21 10:31:51;;;;;;;5.47;4.97;;;17.90;57.60;;;;;;5050856;28;20229;-47
2023/04/21 10:34:33;;;;;;;5.63;5.00;;;17.90;57.70;;;;;;5054419;28;20306;-47
2023/04/21 10:37:11;;;;;;;6.33;5.47;;;17.90;57.80;;;;;;5045131;28;20233;-45
2023/04/21 10:39:54;;;;;;;5.63;5.03;;;17.90;57.80;;;;;;5074170;28;20220;-45
2023/04/21 10:42:33;;;;;;;6.40;5.13;;;17.90;57.70;;;;;;5055347;28;20197;-47
2023/04/21 10:45:12;;;;;;;5.53;4.83;;;17.90;57.80;;;;;;5051319;28;20310;-46
2023/04/21 10:47:50;;;;;;;5.43;4.93;;;18.00;57.80;;;;;;5051956;28;20229;-47
2023/04/21 10:50:29;;;;;;;5.20;4.70;;;18.00;57.90;;;;;;5054172;28;20269;-46
2023/04/21 10:53:11;;;;;;;5.83;5.10;;;18.00;57.80;;;;;;5079986;28;20253;-46
2023/04/21 10:55:50;;;;;;;5.53;5.03;;;18.00;57.90;;;;;;5073559;28;20200;-47
2023/04/21 10:58:24;;;;;;;5.50;5.00;;;18.00;57.80;;;;;;5090634;28;20246;-47
2023/04/21 11:00:57;;;;;;;5.40;4.90;;;18.00;57.80;;;;;;5076212;28;20194;-45
2023/04/21 11:03:35;;;;;;;5.73;5.07;;;18.00;57.90;;;;;;5072776;28;20548;-46
2023/04/21 11:06:19;;;;;;;5.60;5.10;;;18.00;58.00;;;;;;5070381;28;20193;-47
2023/04/21 11:08:57;;;;;;;5.40;4.77;;;18.00;57.90;;;;;;5043985;28;20190;-47
2023/04/21 11:11:27;;;;;;;5.37;4.77;;;18.10;58.10;;;;;;5056754;28;20260;-46
2023/04/21 11:14:01;;;;;;;5.27;4.77;;;18.00;57.80;;;;;;5096883;28;20220;-45
2023/04/21 11:16:30;;;;;;;5.20;4.70;;;18.10;58.00;;;;;;5066680;28;20221;-47
2023/04/21 11:19:02;;;;;;;6.17;4.80;;;18.10;57.90;;;;;;5039519;28;20213;-47
2023/04/21 11:21:33;;;;;;;4.77;4.27;;;18.10;58.00;;;;;;5083834;28;20228;-45
2023/04/21 11:24:04;;;;;;;5.10;4.60;;;18.10;58.00;;;;;;5078160;28;20240;-45
2023/04/21 11:26:41;;;;;;;4.90;4.50;;;18.10;58.00;;;;;;5058399;28;20209;-45
2023/04/21 11:29:13;;;;;;;5.17;4.67;;;18.10;58.00;;;;;;5068414;28;20235;-45
2023/04/21 11:31:47;;;;;;;4.67;4.17;;;18.10;58.10;;;;;;5053662;28;20200;-46
2023/04/21 11:34:23;;;;;;;4.80;4.30;;;18.10;57.90;;;;;;5033862;28;20237;-46
2023/04/21 11:36:57;;;;;;;4.80;4.30;;;18.10;58.00;;;;;;5060001;28;20652;-47
2023/04/21 11:39:28;;;;;;;4.77;3.90;;;18.10;57.90;;;;;;5049723;28;20214;-47
2023/04/21 11:42:01;;;;;;;4.87;4.37;;;18.20;58.10;;;;;;5066901;28;20198;-47
2023/04/21 11:44:53;;;;;;;4.73;4.33;;;18.20;58.00;;;;;;5039535;28;20636;-47
2023/04/21 11:47:26;;;;;;;4.77;4.37;;;18.20;58.00;;;;;;5059350;28;20225;-46
2023/04/21 11:50:08;;;;;;;5.23;4.73;;;18.20;58.10;;;;;;5047821;28;20205;-47
2023/04/21 11:52:47;;;;;;;5.17;4.63;;;18.20;58.10;;;;;;5059408;28;20221;-46
2023/04/21 11:55:18;;;;;;;5.00;4.50;;;18.20;58.10;;;;;;5062597;28;20189;-47
2023/04/21 11:57:50;;;;;;;4.93;4.43;;;18.20;58.20;;;;;;5032883;28;20214;-47
2023/04/21 12:00:22;;;;;;;5.23;4.73;;;18.20;58.20;;;;;;5059124;28;20647;-47
2023/04/21 12:02:59;;;;;;;5.53;4.93;;;18.30;58.20;;;;;;5031547;28;20195;-47
2023/04/21 12:05:43;;;;;;;4.90;4.40;;;18.30;58.20;;;;;;5052328;28;20249;-45
2023/04/21 12:08:16;;;;;;;4.70;4.27;;;18.30;58.20;;;;;;5059920;28;20201;-47
2023/04/21 12:10:48;;;;;;;4.87;4.40;;;18.30;58.20;;;;;;5069233;28;20212;-44
2023/04/21 12:13:26;;;;;;;5.53;4.60;;;18.30;58.20;;;;;;5064619;28;20255;-45
2023/04/21 12:15:57;;;;;;;4.73;4.17;;;18.30;58.30;;;;;;5034884;28;20626;-47
2023/04/21 12:18:27;;;;;;;5.10;4.60;;;18.30;58.20;;;;;;5058331;28;20206;-45
2023/04/21 12:21:02;;;;;;;5.17;4.67;;;18.30;58.30;;;;;;5064702;28;20185;-47
2023/04/21 12:23:33;;;;;;;5.47;4.33;;;18.30;58.30;;;;;;5060869;28;20703;-44
2023/04/21 12:26:05;;;;;;;5.20;4.57;;;18.40;58.30;;;;;;5065959;28;20194;-44
2023/04/21 12:28:34;;;;;;;5.20;4.70;;;18.40;58.30;;;;;;5068761;28;20205;-45
2023/04/21 12:31:06;;;;;;;4.97;4.47;;;18.40;58.40;;;;;;5053305;28;20219;-48
2023/04/21 12:33:37;;;;;;;5.70;4.87;;;18.40;58.40;;;;;;5034272;28;20311;-46
2023/04/21 12:36:09;;;;;;;4.83;4.30;;;18.40;58.40;;;;;;5053655;28;20270;-46
2023/04/21 12:38:39;;;;;;;5.00;4.50;;;18.40;58.40;;;;;;5068994;28;20620;-46
2023/04/21 12:41:11;;;;;;;5.00;4.27;;;18.40;58.40;;;;;;5073150;28;20195;-46
2023/04/21 12:43:42;;;;;;;5.10;4.57;;;18.40;58.40;;;;;;5068701;28;20570;-48
2023/04/21 12:46:13;;;;;;;5.80;4.70;;;18.50;58.40;;;;;;5069909;28;20189;-47
2023/04/21 12:48:44;;;;;;;5.80;4.67;;;18.50;58.40;;;;;;5068729;28;20209;-45
2023/04/21 12:51:17;;;;;;;5.77;4.70;;;18.40;58.40;;;;;;5071502;28;20540;-44
2023/04/21 12:53:49;;;;;;;5.83;4.73;;;18.50;58.40;;;;;;5066711;28;20202;-47
2023/04/21 12:56:21;;;;;;;5.67;4.80;;;18.50;58.50;;;;;;5068349;28;20186;-47
2023/04/21 12:58:50;;;;;;;5.37;4.87;;;18.50;58.50;;;;;;5036561;28;20190;-47
2023/04/21 13:01:17;;;;;;;5.67;4.67;;;18.50;58.40;;;;;;5072117;28;20277;-44
2023/04/21 13:03:48;;;;;;;4.83;4.33;;;18.50;58.40;;;;;;5051952;28;20212;-47
2023/04/21 13:06:18;;;;;;;5.47;4.80;;;18.50;58.40;;;;;;5073426;28;20187;-45
2023/04/21 13:08:54;;;;;;;5.80;5.20;;;18.50;58.40;;;;;;5069180;28;20407;-45
2023/04/21 13:11:23;;;;;;;6.17;5.20;;;18.60;58.40;;;;;;5067116;28;20247;-46
2023/04/21 13:13:53;;;;;;;5.03;4.33;;;18.50;58.40;;;;;;5069282;28;20204;-46